Farmington, MO

11:58 PM CST on February 11, 2016 (GMT -0600)
Farmington Regional | | Change Station
CLOSE
Current Station
Airport
Location: Farmington,
Elevation: 945 ft
Nearby Weather Stations

Elev 945 ft 37.76 °N, 90.43 °W | Updated 2 minutes ago

Light Snow
Light Snow
27 °F
Feels Like 20 °F
N
6
Wind Variable Wind from ENE

Today
High -- | Low -- °F
--% Chance of Precip.
Yesterday
High -- | Low -- °F
Precip. -- in
Pressure 30.30 in
Visibility 4.0 miles
Clouds Few 2100 ft
Mostly Cloudy 3200 ft
Overcast 4400 ft
Windchill 20 °F
Dew Point 20 °F
Humidity 75%
Rainfall 0.00 in
Snow Depth Not available.
6:56 AM 5:35 PM
Waxing Crescent, 17% visible
METAR KFAM 120556Z AUTO 07005KT 4SM -SN FEW021 BKN032 OVC044 M03/M07 A3022 RMK AO2 SNB42 SLP260 P0000 60000 T10281067 11017 21028 400171089 56013 FZRANO
Pressure 30.30 in
Visibility 4.0 miles
Clouds Few 2100 ft
Mostly Cloudy 3200 ft
Overcast 4400 ft
Windchill 20 °F
Dew Point 20 °F
Humidity 75%
Rainfall 0.00 in
Snow Depth Not available.
6:56 AM 5:35 PM
Waxing Crescent, 17% visible
METAR KFAM 120556Z AUTO 07005KT 4SM -SN FEW021 BKN032 OVC044 M03/M07 A3022 RMK AO2 SNB42 SLP260 P0000 60000 T10281067 11017 21028 400171089 56013 FZRANO

10-Day Weather Forecast

Almanac

Astronomy

Feb. 11, 2016 Rise Set
Actual Time
Civil Twilight
Nautical Twilight
Astronomical Twilight
Moon
Length of Visible Light
Length of Day
Tomorrow will be .
, % of the Moon is Illuminated

Today's Extremes

State Highs State Lows

Community

WunderPhotos

Upload Photos

1,892,269 photos uploaded!

WunderBlog® & News

Nearby

Air Quality

  Air Quality AQ Index Pollutant
Not available.

Snow Depth

Station Depth Elevation

Earthquake Activity

City Distance Mag. Time & Date
Minimum magnitude displayed is 2.5.

Coastal Water Temperatures

Place Temperature

Stations

Nearby Weather Stations

Station Location Temp. Windchill Dew Point Humidity Wind Precip. Elev Updated Type
                   

Watches & Warnings

There are currently no watches in effect.